Погода Пайлонна неделю

Бени, Боливия

22 - 28 июля
  • 22июля
    Сегодня
    +17°
    +35°
    Ясно и безоблачно
    ВремяПогодаТемператураВлажностьДавлениеВетер, м/сВероятность осадков
    02:00Ясно и безоблачно+23°C65 %743 мм2.1 м/с5 %
    05:00Ясно и безоблачно+21°C71 %743 мм2.0 м/с5 %
    08:00Ясно и безоблачно+19°C65 %745 мм0.0 м/с5 %
    11:00Ясно и безоблачно+30°C40 %746 мм1.8 м/с5 %
    14:00Ясно и безоблачно+34°C31 %744 мм2.2 м/с5 %
    17:00Ясно и безоблачно+34°C34 %743 мм1.5 м/с5 %
    20:00Ясно и безоблачно+27°C46 %743 мм2.0 м/с5 %
    23:00Ясно и безоблачно+23°C57 %744 мм1.9 м/с5 %
  • 23июля
    Вторник
    +16°
    +35°
    Ясно и безоблачно
    ВремяПогодаТемператураВлажностьДавлениеВетер, м/сВероятность осадков
    02:00Практически безоблачно+20°C61 %744 мм2.3 м/с5 %
    05:00Ясно и безоблачно+18°C66 %744 мм2.3 м/с5 %
    08:00Ясно и безоблачно+19°C67 %745 мм0.0 м/с5 %
    11:00Ясно и безоблачно+30°C45 %746 мм1.7 м/с5 %
    14:00Ясно и безоблачно+34°C28 %744 мм2.1 м/с5 %
    17:00Ясно и безоблачно+34°C32 %743 мм0.8 м/с5 %
    20:00Ясно и безоблачно+29°C37 %743 мм1.7 м/с5 %
    23:00Ясно и безоблачно+24°C49 %743 мм1.4 м/с5 %
  • 24июля
    Среда
    +16°
    +37°
    Ясно и безоблачно
    ВремяПогодаТемператураВлажностьДавлениеВетер, м/сВероятность осадков
    02:00Ясно и безоблачно+21°C58 %743 мм1.9 м/с5 %
    05:00Ясно и безоблачно+17°C66 %743 мм2.0 м/с5 %
    08:00Ясно и безоблачно+18°C57 %745 мм0.0 м/с5 %
    11:00Ясно и безоблачно+32°C28 %746 мм1.7 м/с5 %
    14:00Ясно и безоблачно+36°C24 %744 мм3.0 м/с5 %
    17:00Ясно и безоблачно+35°C28 %743 мм1.7 м/с5 %
    20:00Ясно и безоблачно+28°C38 %743 мм2.1 м/с5 %
    23:00Ясно и безоблачно+25°C44 %744 мм1.3 м/с5 %
  • 25июля
    Четверг
    +20°
    +36°
    Ясно и безоблачно
    ВремяПогодаТемператураВлажностьДавлениеВетер, м/сВероятность осадков
    02:00Ясно и безоблачно+20°C60 %743 мм2.4 м/с5 %
    05:00Ясно и безоблачно+18°C62 %743 мм1.8 м/с5 %
    08:00Ясно и безоблачно+19°C61 %745 мм0.0 м/с5 %
    11:00Ясно и безоблачно+31°C33 %747 мм0.7 м/с5 %
    14:00Ясно и безоблачно+36°C27 %744 мм2.2 м/с5 %
    17:00Ясно и безоблачно+36°C31 %742 мм1.3 м/с5 %
    20:00Ясно и безоблачно+29°C41 %743 мм2.1 м/с5 %
    23:00Ясно и безоблачно+27°C42 %743 мм0.4 м/с5 %
  • 26июля
    Пятница
    +18°
    +37°
    Ясно и безоблачно
    ВремяПогодаТемператураВлажностьДавлениеВетер, м/сВероятность осадков
    02:00Облачно с прояснениями+22°C58 %742 мм2.0 м/с5 %
    05:00Практически безоблачно+20°C56 %742 мм1.3 м/с5 %
    08:00Ясно и безоблачно+20°C59 %743 мм0.0 м/с5 %
    11:00Ясно и безоблачно+33°C32 %744 мм1.5 м/с5 %
    14:00Ясно и безоблачно+37°C25 %742 мм3.1 м/с5 %
    17:00Ясно и безоблачно+37°C35 %741 мм1.8 м/с5 %
    20:00Ясно и безоблачно+29°C45 %741 мм1.8 м/с5 %
    23:00Ясно и безоблачно+25°C50 %742 мм1.9 м/с5 %
Мы используем cookies
Соглашаюсь